sensor_id;sensor_type;location;lat;lon;timestamp;pressure;altitude;pressure_sealevel;temperature;humidity
43814;BME280;29669;55.706;37.656;2023-12-04T00:02:15;98780.50;;;-2.99;72.42
43814;BME280;29669;55.706;37.656;2023-12-04T00:04:43;98781.41;;;-3.00;72.29
43814;BME280;29669;55.706;37.656;2023-12-04T00:07:10;98787.59;;;-3.04;72.02
43814;BME280;29669;55.706;37.656;2023-12-04T00:09:38;98787.59;;;-3.17;72.00
43814;BME280;29669;55.706;37.656;2023-12-04T00:12:06;98804.22;;;-3.25;72.04
43814;BME280;29669;55.706;37.656;2023-12-04T00:14:33;98797.31;;;-3.36;72.07
43814;BME280;29669;55.706;37.656;2023-12-04T00:17:01;98798.72;;;-3.44;72.24
43814;BME280;29669;55.706;37.656;2023-12-04T00:19:28;98791.31;;;-3.47;72.26
43814;BME280;29669;55.706;37.656;2023-12-04T00:21:57;98804.00;;;-3.47;72.73
43814;BME280;29669;55.706;37.656;2023-12-04T00:24:24;98802.19;;;-3.45;72.60
43814;BME280;29669;55.706;37.656;2023-12-04T00:26:52;98797.81;;;-3.43;72.58
43814;BME280;29669;55.706;37.656;2023-12-04T00:29:19;98804.63;;;-3.44;72.55
43814;BME280;29669;55.706;37.656;2023-12-04T00:31:47;98806.16;;;-3.41;72.45
43814;BME280;29669;55.706;37.656;2023-12-04T00:34:14;98803.41;;;-3.38;72.65
43814;BME280;29669;55.706;37.656;2023-12-04T00:36:42;98815.19;;;-3.37;72.58
43814;BME280;29669;55.706;37.656;2023-12-04T00:39:10;98828.38;;;-3.32;72.66
43814;BME280;29669;55.706;37.656;2023-12-04T00:41:37;98821.47;;;-3.30;72.52
43814;BME280;29669;55.706;37.656;2023-12-04T00:44:06;98834.06;;;-3.29;72.42
43814;BME280;29669;55.706;37.656;2023-12-04T00:46:33;98832.44;;;-3.30;72.28
43814;BME280;29669;55.706;37.656;2023-12-04T00:49:01;98831.41;;;-3.27;72.43
43814;BME280;29669;55.706;37.656;2023-12-04T00:51:28;98826.16;;;-3.24;72.62
43814;BME280;29669;55.706;37.656;2023-12-04T00:53:56;98827.69;;;-3.22;72.74
43814;BME280;29669;55.706;37.656;2023-12-04T00:56:23;98837.53;;;-3.17;72.74
43814;BME280;29669;55.706;37.656;2023-12-04T00:58:51;98845.84;;;-3.15;72.97
43814;BME280;29669;55.706;37.656;2023-12-04T01:01:19;98848.50;;;-3.17;72.91
43814;BME280;29669;55.706;37.656;2023-12-04T01:03:48;98863.13;;;-3.20;73.42
43814;BME280;29669;55.706;37.656;2023-12-04T01:06:22;98855.59;;;-3.22;73.71
43814;BME280;29669;55.706;37.656;2023-12-04T01:08:50;98855.78;;;-3.25;73.78
43814;BME280;29669;55.706;37.656;2023-12-04T01:11:18;98856.91;;;-3.29;74.12
43814;BME280;29669;55.706;37.656;2023-12-04T01:13:47;98857.00;;;-3.30;74.44
43814;BME280;29669;55.706;37.656;2023-12-04T01:16:15;98874.47;;;-3.26;74.60
43814;BME280;29669;55.706;37.656;2023-12-04T01:18:43;98872.44;;;-3.21;74.52
43814;BME280;29669;55.706;37.656;2023-12-04T01:21:11;98867.66;;;-3.25;74.32
43814;BME280;29669;55.706;37.656;2023-12-04T01:23:38;98866.31;;;-3.31;74.79
43814;BME280;29669;55.706;37.656;2023-12-04T01:26:06;98865.53;;;-3.31;74.87
43814;BME280;29669;55.706;37.656;2023-12-04T01:28:33;98876.31;;;-3.28;74.97
43814;BME280;29669;55.706;37.656;2023-12-04T01:31:01;98878.53;;;-3.23;74.77
43814;BME280;29669;55.706;37.656;2023-12-04T01:33:30;98869.91;;;-3.21;74.39
43814;BME280;29669;55.706;37.656;2023-12-04T01:35:59;98880.28;;;-3.24;74.45
43814;BME280;29669;55.706;37.656;2023-12-04T01:38:26;98870.19;;;-3.25;74.64
43814;BME280;29669;55.706;37.656;2023-12-04T01:40:54;98876.91;;;-3.24;74.44
43814;BME280;29669;55.706;37.656;2023-12-04T01:43:21;98870.19;;;-3.25;74.38
43814;BME280;29669;55.706;37.656;2023-12-04T01:45:49;98874.47;;;-3.26;74.27
43814;BME280;29669;55.706;37.656;2023-12-04T01:48:17;98874.28;;;-3.23;74.36
43814;BME280;29669;55.706;37.656;2023-12-04T01:50:45;98883.59;;;-3.23;74.38
43814;BME280;29669;55.706;37.656;2023-12-04T01:53:12;98880.06;;;-3.21;74.38
43814;BME280;29669;55.706;37.656;2023-12-04T01:55:40;98884.91;;;-3.18;74.30
43814;BME280;29669;55.706;37.656;2023-12-04T01:58:08;98878.34;;;-3.20;74.33
43814;BME280;29669;55.706;37.656;2023-12-04T02:00:36;98874.06;;;-3.20;74.27
43814;BME280;29669;55.706;37.656;2023-12-04T02:03:04;98880.78;;;-3.19;74.08
43814;BME280;29669;55.706;37.656;2023-12-04T02:05:32;98884.22;;;-3.20;73.83
43814;BME280;29669;55.706;37.656;2023-12-04T02:08:01;98885.75;;;-3.17;73.97
43814;BME280;29669;55.706;37.656;2023-12-04T02:10:29;98895.91;;;-3.17;73.72
43814;BME280;29669;55.706;37.656;2023-12-04T02:12:57;98894.28;;;-3.18;73.67
43814;BME280;29669;55.706;37.656;2023-12-04T02:15:25;98897.94;;;-3.22;73.82
43814;BME280;29669;55.706;37.656;2023-12-04T02:17:54;98891.31;;;-3.25;73.83
43814;BME280;29669;55.706;37.656;2023-12-04T02:20:33;98896.59;;;-3.28;74.08
43814;BME280;29669;55.706;37.656;2023-12-04T02:23:01;98905.00;;;-3.27;74.38
43814;BME280;29669;55.706;37.656;2023-12-04T02:25:30;98926.84;;;-3.25;74.05
43814;BME280;29669;55.706;37.656;2023-12-04T02:28:11;98907.16;;;-3.21;73.73
43814;BME280;29669;55.706;37.656;2023-12-04T02:30:43;98914.97;;;-3.24;73.58
43814;BME280;29669;55.706;37.656;2023-12-04T02:33:11;98909.19;;;-3.26;73.26
43814;BME280;29669;55.706;37.656;2023-12-04T02:35:41;98918.09;;;-3.33;73.14
43814;BME280;29669;55.706;37.656;2023-12-04T02:38:10;98915.84;;;-3.38;73.31
43814;BME280;29669;55.706;37.656;2023-12-04T02:40:39;98915.03;;;-3.38;73.35
43814;BME280;29669;55.706;37.656;2023-12-04T02:43:06;98921.72;;;-3.37;73.39
43814;BME280;29669;55.706;37.656;2023-12-04T02:45:34;98933.97;;;-3.44;73.13
43814;BME280;29669;55.706;37.656;2023-12-04T02:48:01;98935.66;;;-3.57;72.87
43814;BME280;29669;55.706;37.656;2023-12-04T02:50:29;98928.72;;;-3.67;72.77
43814;BME280;29669;55.706;37.656;2023-12-04T02:52:57;98937.06;;;-3.79;73.12
43814;BME280;29669;55.706;37.656;2023-12-04T02:55:24;98939.81;;;-3.83;73.25
43814;BME280;29669;55.706;37.656;2023-12-04T02:57:52;98953.00;;;-3.92;73.12
43814;BME280;29669;55.706;37.656;2023-12-04T03:00:19;98948.50;;;-4.01;73.00
43814;BME280;29669;55.706;37.656;2023-12-04T03:02:47;98962.19;;;-4.03;73.19
43814;BME280;29669;55.706;37.656;2023-12-04T03:05:14;98963.91;;;-4.04;73.22
43814;BME280;29669;55.706;37.656;2023-12-04T03:07:42;98966.53;;;-4.05;73.17
43814;BME280;29669;55.706;37.656;2023-12-04T03:10:09;98968.41;;;-4.09;73.08
43814;BME280;29669;55.706;37.656;2023-12-04T03:12:37;98979.81;;;-4.16;72.98
43814;BME280;29669;55.706;37.656;2023-12-04T03:15:05;98986.16;;;-4.23;73.13
43814;BME280;29669;55.706;37.656;2023-12-04T03:17:32;98981.25;;;-4.26;73.27
43814;BME280;29669;55.706;37.656;2023-12-04T03:20:00;98994.75;;;-4.25;73.21
43814;BME280;29669;55.706;37.656;2023-12-04T03:22:29;98997.38;;;-4.27;73.26
43814;BME280;29669;55.706;37.656;2023-12-04T03:27:24;99012.38;;;-4.24;nan
43814;BME280;29669;55.706;37.656;2023-12-04T03:29:52;99012.22;;;-4.21;nan
43814;BME280;29669;55.706;37.656;2023-12-04T03:32:19;99018.84;;;-4.18;nan
43814;BME280;29669;55.706;37.656;2023-12-04T03:34:47;99030.88;;;-4.08;nan
43814;BME280;29669;55.706;37.656;2023-12-04T03:37:14;99036.28;;;-4.14;nan
43814;BME280;29669;55.706;37.656;2023-12-04T03:39:42;99038.09;;;-4.16;nan
43814;BME280;29669;55.706;37.656;2023-12-04T03:42:10;99051.50;;;-4.14;nan
43814;BME280;29669;55.706;37.656;2023-12-04T03:44:37;99063.78;;;-4.22;nan
43814;BME280;29669;55.706;37.656;2023-12-04T03:47:05;99075.53;;;-4.35;nan
43814;BME280;29669;55.706;37.656;2023-12-04T03:49:32;99091.44;;;-4.33;nan
43814;BME280;29669;55.706;37.656;2023-12-04T03:52:00;99075.91;;;-4.27;nan
43814;BME280;29669;55.706;37.656;2023-12-04T03:54:27;99082.44;;;-4.23;nan
43814;BME280;29669;55.706;37.656;2023-12-04T03:56:55;99097.88;;;-4.27;nan
43814;BME280;29669;55.706;37.656;2023-12-04T03:59:22;99112.97;;;-4.40;nan
43814;BME280;29669;55.706;37.656;2023-12-04T04:01:50;99111.44;;;-4.58;nan
43814;BME280;29669;55.706;37.656;2023-12-04T04:04:18;99114.34;;;-4.64;nan
43814;BME280;29669;55.706;37.656;2023-12-04T04:06:45;99123.81;;;-4.67;nan
43814;BME280;29669;55.706;37.656;2023-12-04T04:09:13;99138.00;;;-4.65;nan
43814;BME280;29669;55.706;37.656;2023-12-04T04:11:40;99137.84;;;-4.62;nan
43814;BME280;29669;55.706;37.656;2023-12-04T04:14:08;99135.47;;;-4.65;nan
43814;BME280;29669;55.706;37.656;2023-12-04T04:16:35;99140.72;;;-4.68;nan
43814;BME280;29669;55.706;37.656;2023-12-04T04:19:03;99134.41;;;-4.77;nan
43814;BME280;29669;55.706;37.656;2023-12-04T04:21:31;99136.91;;;-4.75;nan
43814;BME280;29669;55.706;37.656;2023-12-04T04:23:59;99149.03;;;-4.66;nan
43814;BME280;29669;55.706;37.656;2023-12-04T04:26:27;99153.53;;;-4.71;nan
43814;BME280;29669;55.706;37.656;2023-12-04T04:28:54;99154.63;;;-4.75;nan
43814;BME280;29669;55.706;37.656;2023-12-04T04:31:22;99146.09;;;-4.74;nan
43814;BME280;29669;55.706;37.656;2023-12-04T04:33:50;99158.25;;;-4.65;nan
43814;BME280;29669;55.706;37.656;2023-12-04T04:36:17;99163.00;;;-4.59;nan
43814;BME280;29669;55.706;37.656;2023-12-04T04:38:45;99158.03;;;-4.60;nan
43814;BME280;29669;55.706;37.656;2023-12-04T04:41:14;99174.91;;;-4.61;nan
43814;BME280;29669;55.706;37.656;2023-12-04T04:43:42;99161.13;;;-4.71;nan
43814;BME280;29669;55.706;37.656;2023-12-04T04:46:10;99175.41;;;-4.70;nan
43814;BME280;29669;55.706;37.656;2023-12-04T04:48:37;99177.94;;;-4.70;nan
43814;BME280;29669;55.706;37.656;2023-12-04T04:51:05;99165.53;;;-4.74;nan
43814;BME280;29669;55.706;37.656;2023-12-04T04:53:33;99172.38;;;-4.77;nan
43814;BME280;29669;55.706;37.656;2023-12-04T04:56:00;99166.34;;;-4.74;nan
43814;BME280;29669;55.706;37.656;2023-12-04T04:58:28;99157.69;;;-4.70;nan
43814;BME280;29669;55.706;37.656;2023-12-04T05:00:55;99178.09;;;-4.57;nan
43814;BME280;29669;55.706;37.656;2023-12-04T05:03:23;99170.91;;;-4.49;nan
43814;BME280;29669;55.706;37.656;2023-12-04T05:05:51;99182.66;;;-4.48;nan
43814;BME280;29669;55.706;37.656;2023-12-04T05:08:19;99177.59;;;-4.48;nan
43814;BME280;29669;55.706;37.656;2023-12-04T05:10:46;99196.81;;;-4.60;nan
43814;BME280;29669;55.706;37.656;2023-12-04T05:13:14;99189.69;;;-4.69;nan
43814;BME280;29669;55.706;37.656;2023-12-04T05:15:42;99193.13;;;-4.70;nan
43814;BME280;29669;55.706;37.656;2023-12-04T05:18:09;99192.59;;;-4.75;nan
43814;BME280;29669;55.706;37.656;2023-12-04T05:20:37;99193.22;;;-4.71;nan
43814;BME280;29669;55.706;37.656;2023-12-04T05:23:04;99195.59;;;-4.68;nan
43814;BME280;29669;55.706;37.656;2023-12-04T05:25:32;99199.25;;;-4.74;nan
43814;BME280;29669;55.706;37.656;2023-12-04T05:28:07;99197.38;;;-4.70;nan
43814;BME280;29669;55.706;37.656;2023-12-04T05:30:34;99210.31;;;-4.75;nan
43814;BME280;29669;55.706;37.656;2023-12-04T05:33:02;99214.38;;;-4.72;nan
43814;BME280;29669;55.706;37.656;2023-12-04T05:35:30;99211.59;;;-4.68;nan
43814;BME280;29669;55.706;37.656;2023-12-04T05:38:01;99217.53;;;-4.69;nan
43814;BME280;29669;55.706;37.656;2023-12-04T05:40:28;99229.97;;;-4.64;nan
43814;BME280;29669;55.706;37.656;2023-12-04T05:42:56;99239.94;;;-4.77;nan
43814;BME280;29669;55.706;37.656;2023-12-04T05:45:23;99240.38;;;-4.86;nan
43814;BME280;29669;55.706;37.656;2023-12-04T05:47:51;99234.38;;;-4.84;nan
43814;BME280;29669;55.706;37.656;2023-12-04T05:50:20;99258.31;;;-4.73;nan
43814;BME280;29669;55.706;37.656;2023-12-04T05:52:47;99242.06;;;-4.69;nan
43814;BME280;29669;55.706;37.656;2023-12-04T05:55:15;99264.34;;;-4.60;nan
43814;BME280;29669;55.706;37.656;2023-12-04T05:57:43;99264.03;;;-4.54;nan
43814;BME280;29669;55.706;37.656;2023-12-04T06:00:11;99266.50;;;-4.53;nan
43814;BME280;29669;55.706;37.656;2023-12-04T06:02:43;99265.31;;;-4.63;nan
43814;BME280;29669;55.706;37.656;2023-12-04T06:05:11;99286.22;;;-4.59;nan
43814;BME280;29669;55.706;37.656;2023-12-04T06:07:38;99280.13;;;-4.55;nan
43814;BME280;29669;55.706;37.656;2023-12-04T06:10:07;99286.88;;;-4.56;nan
43814;BME280;29669;55.706;37.656;2023-12-04T06:12:35;99301.03;;;-4.52;nan
43814;BME280;29669;55.706;37.656;2023-12-04T06:15:03;99286.44;;;-4.47;nan
43814;BME280;29669;55.706;37.656;2023-12-04T06:17:32;99296.88;;;-4.53;nan
43814;BME280;29669;55.706;37.656;2023-12-04T06:20:00;99304.56;;;-4.54;nan
43814;BME280;29669;55.706;37.656;2023-12-04T06:22:30;99297.19;;;-4.59;nan
43814;BME280;29669;55.706;37.656;2023-12-04T06:24:58;99310.59;;;-4.57;nan
43814;BME280;29669;55.706;37.656;2023-12-04T06:27:25;99311.16;;;-4.52;nan
43814;BME280;29669;55.706;37.656;2023-12-04T06:29:53;99313.03;;;-4.55;nan
43814;BME280;29669;55.706;37.656;2023-12-04T06:32:21;99330.50;;;-4.66;nan
43814;BME280;29669;55.706;37.656;2023-12-04T06:34:49;99319.84;;;-4.73;nan
43814;BME280;29669;55.706;37.656;2023-12-04T06:37:17;99330.41;;;-4.65;nan
43814;BME280;29669;55.706;37.656;2023-12-04T06:39:48;99333.38;;;-4.57;nan
43814;BME280;29669;55.706;37.656;2023-12-04T06:42:16;99337.38;;;-4.53;nan
43814;BME280;29669;55.706;37.656;2023-12-04T06:44:44;99341.16;;;-4.60;nan
43814;BME280;29669;55.706;37.656;2023-12-04T06:47:12;99348.13;;;-4.65;nan
43814;BME280;29669;55.706;37.656;2023-12-04T06:49:40;99344.00;;;-4.66;nan
43814;BME280;29669;55.706;37.656;2023-12-04T06:52:07;99339.50;;;-4.61;nan
43814;BME280;29669;55.706;37.656;2023-12-04T06:54:35;99348.44;;;-4.71;nan
43814;BME280;29669;55.706;37.656;2023-12-04T06:57:03;99336.91;;;-4.77;nan
43814;BME280;29669;55.706;37.656;2023-12-04T06:59:30;99351.22;;;-4.75;nan
43814;BME280;29669;55.706;37.656;2023-12-04T07:01:58;99355.31;;;-4.73;nan
43814;BME280;29669;55.706;37.656;2023-12-04T07:04:25;99353.50;;;-4.71;nan
43814;BME280;29669;55.706;37.656;2023-12-04T07:06:53;99354.25;;;-4.69;nan
43814;BME280;29669;55.706;37.656;2023-12-04T07:09:20;99368.09;;;-4.59;nan
43814;BME280;29669;55.706;37.656;2023-12-04T07:11:48;99360.50;;;-4.59;nan
43814;BME280;29669;55.706;37.656;2023-12-04T07:14:16;99367.03;;;-4.55;nan
43814;BME280;29669;55.706;37.656;2023-12-04T07:16:43;99375.28;;;-4.51;nan
43814;BME280;29669;55.706;37.656;2023-12-04T07:19:11;99377.09;;;-4.53;nan
43814;BME280;29669;55.706;37.656;2023-12-04T07:21:40;99375.84;;;-4.62;nan
43814;BME280;29669;55.706;37.656;2023-12-04T07:24:08;99381.31;;;-4.54;nan
43814;BME280;29669;55.706;37.656;2023-12-04T07:26:36;99383.28;;;-4.59;nan
43814;BME280;29669;55.706;37.656;2023-12-04T07:29:04;99399.91;;;-4.70;nan
43814;BME280;29669;55.706;37.656;2023-12-04T07:31:31;99401.03;;;-4.76;nan
43814;BME280;29669;55.706;37.656;2023-12-04T07:33:59;99398.41;;;-4.74;nan
43814;BME280;29669;55.706;37.656;2023-12-04T07:36:29;99405.53;;;-4.65;nan
43814;BME280;29669;55.706;37.656;2023-12-04T07:38:56;99408.78;;;-4.62;nan
43814;BME280;29669;55.706;37.656;2023-12-04T07:41:24;99419.78;;;-4.63;nan
43814;BME280;29669;55.706;37.656;2023-12-04T07:43:52;99416.75;;;-4.69;nan
43814;BME280;29669;55.706;37.656;2023-12-04T07:46:19;99419.41;;;-4.72;nan
43814;BME280;29669;55.706;37.656;2023-12-04T07:48:47;99426.16;;;-4.56;nan
43814;BME280;29669;55.706;37.656;2023-12-04T07:51:15;99420.97;;;-4.53;nan
43814;BME280;29669;55.706;37.656;2023-12-04T07:53:43;99420.88;;;-4.51;nan
43814;BME280;29669;55.706;37.656;2023-12-04T07:56:12;99434.56;;;-4.38;nan
43814;BME280;29669;55.706;37.656;2023-12-04T07:58:40;99440.44;;;-4.38;nan
43814;BME280;29669;55.706;37.656;2023-12-04T08:01:07;99432.97;;;-4.41;nan
43814;BME280;29669;55.706;37.656;2023-12-04T08:03:35;99445.50;;;-4.38;nan
43814;BME280;29669;55.706;37.656;2023-12-04T08:06:03;99450.31;;;-4.33;nan
43814;BME280;29669;55.706;37.656;2023-12-04T08:08:31;99459.44;;;-4.46;nan
43814;BME280;29669;55.706;37.656;2023-12-04T08:10:59;99440.59;;;-4.58;nan
43814;BME280;29669;55.706;37.656;2023-12-04T08:13:26;99441.25;;;-4.70;nan
43814;BME280;29669;55.706;37.656;2023-12-04T08:15:54;99444.22;;;-4.62;nan
43814;BME280;29669;55.706;37.656;2023-12-04T08:18:22;99454.72;;;-4.52;nan
43814;BME280;29669;55.706;37.656;2023-12-04T08:20:49;99447.88;;;-4.35;nan
43814;BME280;29669;55.706;37.656;2023-12-04T08:23:17;99452.31;;;-4.23;nan
43814;BME280;29669;55.706;37.656;2023-12-04T08:25:45;99450.69;;;-4.24;nan
43814;BME280;29669;55.706;37.656;2023-12-04T08:28:13;99461.38;;;-4.34;nan
43814;BME280;29669;55.706;37.656;2023-12-04T08:30:40;99463.84;;;-4.50;nan
43814;BME280;29669;55.706;37.656;2023-12-04T08:33:08;99465.06;;;-4.57;nan
43814;BME280;29669;55.706;37.656;2023-12-04T08:35:36;99470.94;;;-4.56;nan
43814;BME280;29669;55.706;37.656;2023-12-04T08:38:03;99506.91;;;-4.50;nan
43814;BME280;29669;55.706;37.656;2023-12-04T08:40:31;99473.69;;;-4.61;nan
43814;BME280;29669;55.706;37.656;2023-12-04T08:42:59;99473.84;;;-4.64;nan
43814;BME280;29669;55.706;37.656;2023-12-04T08:45:26;99487.53;;;-4.51;nan
43814;BME280;29669;55.706;37.656;2023-12-04T08:47:54;99481.75;;;-4.53;nan
43814;BME280;29669;55.706;37.656;2023-12-04T08:50:21;99481.13;;;-4.58;nan
43814;BME280;29669;55.706;37.656;2023-12-04T08:52:49;99484.41;;;-4.56;nan
43814;BME280;29669;55.706;37.656;2023-12-04T08:55:17;99478.97;;;-4.48;nan
43814;BME280;29669;55.706;37.656;2023-12-04T08:57:45;99487.16;;;-4.43;nan
43814;BME280;29669;55.706;37.656;2023-12-04T09:00:13;99489.41;;;-4.22;nan
43814;BME280;29669;55.706;37.656;2023-12-04T09:02:41;99495.75;;;-4.13;nan
43814;BME280;29669;55.706;37.656;2023-12-04T09:05:15;99497.16;;;-4.08;nan
43814;BME280;29669;55.706;37.656;2023-12-04T09:07:43;99490.38;;;-4.07;nan
43814;BME280;29669;55.706;37.656;2023-12-04T09:10:13;99499.78;;;-4.09;nan
43814;BME280;29669;55.706;37.656;2023-12-04T09:12:51;99500.56;;;-4.09;nan
43814;BME280;29669;55.706;37.656;2023-12-04T09:15:19;99497.91;;;-4.06;nan
43814;BME280;29669;55.706;37.656;2023-12-04T09:17:47;99496.69;;;-3.99;nan
43814;BME280;29669;55.706;37.656;2023-12-04T09:20:14;99503.72;;;-4.04;nan
43814;BME280;29669;55.706;37.656;2023-12-04T09:22:42;99501.59;;;-3.96;nan
43814;BME280;29669;55.706;37.656;2023-12-04T09:25:16;99508.03;;;-4.06;nan
43814;BME280;29669;55.706;37.656;2023-12-04T09:27:44;99512.53;;;-4.11;nan
43814;BME280;29669;55.706;37.656;2023-12-04T09:30:12;99501.25;;;-4.05;nan
43814;BME280;29669;55.706;37.656;2023-12-04T09:32:39;99507.88;;;-4.03;nan
43814;BME280;29669;55.706;37.656;2023-12-04T09:35:07;99507.25;;;-3.91;nan
43814;BME280;29669;55.706;37.656;2023-12-04T09:37:35;99519.31;;;-3.78;nan
43814;BME280;29669;55.706;37.656;2023-12-04T09:40:03;99517.06;;;-3.85;nan
43814;BME280;29669;55.706;37.656;2023-12-04T09:42:30;99517.66;;;-3.79;nan
43814;BME280;29669;55.706;37.656;2023-12-04T09:44:59;99527.47;;;-3.73;nan
43814;BME280;29669;55.706;37.656;2023-12-04T09:47:29;99530.88;;;-3.90;nan
43814;BME280;29669;55.706;37.656;2023-12-04T09:49:57;99526.03;;;-3.95;nan
43814;BME280;29669;55.706;37.656;2023-12-04T09:52:27;99537.09;;;-3.96;nan
43814;BME280;29669;55.706;37.656;2023-12-04T09:54:55;99547.81;;;-3.91;nan
43814;BME280;29669;55.706;37.656;2023-12-04T09:57:23;99542.38;;;-4.00;nan
43814;BME280;29669;55.706;37.656;2023-12-04T09:59:52;99551.34;;;-4.10;nan
43814;BME280;29669;55.706;37.656;2023-12-04T10:02:20;99551.88;;;-4.21;nan
43814;BME280;29669;55.706;37.656;2023-12-04T10:04:49;99563.28;;;-4.29;nan
43814;BME280;29669;55.706;37.656;2023-12-04T10:07:16;99559.63;;;-4.24;nan
43814;BME280;29669;55.706;37.656;2023-12-04T10:09:44;99558.47;;;-4.34;nan
43814;BME280;29669;55.706;37.656;2023-12-04T10:12:11;99574.16;;;-4.27;nan
43814;BME280;29669;55.706;37.656;2023-12-04T10:14:39;99580.97;;;-4.28;nan
43814;BME280;29669;55.706;37.656;2023-12-04T10:17:16;99586.16;;;-4.31;nan
43814;BME280;29669;55.706;37.656;2023-12-04T10:19:45;99599.56;;;-4.29;nan
43814;BME280;29669;55.706;37.656;2023-12-04T10:22:13;99592.34;;;-4.36;nan
43814;BME280;29669;55.706;37.656;2023-12-04T10:24:41;99593.19;;;-4.36;nan
43814;BME280;29669;55.706;37.656;2023-12-04T10:27:09;99594.97;;;-4.38;nan
43814;BME280;29669;55.706;37.656;2023-12-04T10:29:49;99595.25;;;-4.44;nan
43814;BME280;29669;55.706;37.656;2023-12-04T10:32:20;99602.09;;;-4.46;nan
43814;BME280;29669;55.706;37.656;2023-12-04T10:34:50;99604.25;;;-4.38;nan
43814;BME280;29669;55.706;37.656;2023-12-04T10:37:19;99595.78;;;-4.37;nan
43814;BME280;29669;55.706;37.656;2023-12-04T10:39:49;99611.13;;;-4.40;nan
43814;BME280;29669;55.706;37.656;2023-12-04T10:42:24;99622.53;;;-4.49;nan
43814;BME280;29669;55.706;37.656;2023-12-04T10:44:57;99612.31;;;-4.47;nan
43814;BME280;29669;55.706;37.656;2023-12-04T10:47:26;99619.63;;;-4.41;nan
43814;BME280;29669;55.706;37.656;2023-12-04T10:49:53;99628.34;;;-4.30;nan
43814;BME280;29669;55.706;37.656;2023-12-04T10:52:22;99618.50;;;-4.36;nan
43814;BME280;29669;55.706;37.656;2023-12-04T10:54:50;99619.81;;;-4.46;nan
43814;BME280;29669;55.706;37.656;2023-12-04T10:57:26;99629.28;;;-4.49;nan
43814;BME280;29669;55.706;37.656;2023-12-04T10:59:57;99629.66;;;-4.57;nan
43814;BME280;29669;55.706;37.656;2023-12-04T11:02:26;99623.91;;;-4.60;nan
43814;BME280;29669;55.706;37.656;2023-12-04T11:04:58;99626.28;;;-4.57;nan
43814;BME280;29669;55.706;37.656;2023-12-04T11:07:30;99637.72;;;-4.49;nan
43814;BME280;29669;55.706;37.656;2023-12-04T11:10:22;99630.72;;;-4.44;nan
43814;BME280;29669;55.706;37.656;2023-12-04T11:13:00;99638.47;;;-4.47;nan
43814;BME280;29669;55.706;37.656;2023-12-04T11:15:35;99635.94;;;-4.47;nan
43814;BME280;29669;55.706;37.656;2023-12-04T11:18:06;99650.50;;;-4.52;nan
43814;BME280;29669;55.706;37.656;2023-12-04T11:20:41;99651.84;;;-4.62;nan
43814;BME280;29669;55.706;37.656;2023-12-04T11:23:13;99649.72;;;-4.52;nan
43814;BME280;29669;55.706;37.656;2023-12-04T11:25:44;99647.22;;;-4.54;nan
43814;BME280;29669;55.706;37.656;2023-12-04T11:28:12;99647.59;;;-4.61;nan
43814;BME280;29669;55.706;37.656;2023-12-04T11:30:41;99649.44;;;-4.65;nan
43814;BME280;29669;55.706;37.656;2023-12-04T11:33:09;99663.34;;;-4.73;nan
43814;BME280;29669;55.706;37.656;2023-12-04T11:35:38;99659.25;;;-4.76;nan
43814;BME280;29669;55.706;37.656;2023-12-04T11:38:06;99658.63;;;-4.62;nan
43814;BME280;29669;55.706;37.656;2023-12-04T11:40:37;99653.47;;;-4.61;nan
43814;BME280;29669;55.706;37.656;2023-12-04T11:43:27;99655.31;;;-4.64;nan
43814;BME280;29669;55.706;37.656;2023-12-04T11:46:10;99672.50;;;-4.71;nan
43814;BME280;29669;55.706;37.656;2023-12-04T11:48:39;99669.22;;;-4.73;nan
43814;BME280;29669;55.706;37.656;2023-12-04T11:51:07;99665.25;;;-4.79;nan
43814;BME280;29669;55.706;37.656;2023-12-04T11:53:38;99673.13;;;-4.66;nan
43814;BME280;29669;55.706;37.656;2023-12-04T11:56:10;99673.53;;;-4.56;nan
43814;BME280;29669;55.706;37.656;2023-12-04T11:58:45;99678.63;;;-4.58;nan
43814;BME280;29669;55.706;37.656;2023-12-04T12:01:17;99669.28;;;-4.74;nan
43814;BME280;29669;55.706;37.656;2023-12-04T12:03:45;99681.69;;;-4.68;nan
43814;BME280;29669;55.706;37.656;2023-12-04T12:06:17;99700.66;;;-4.77;nan
43814;BME280;29669;55.706;37.656;2023-12-04T12:08:45;99702.69;;;-4.85;nan
43814;BME280;29669;55.706;37.656;2023-12-04T12:11:13;99690.03;;;-4.85;nan
43814;BME280;29669;55.706;37.656;2023-12-04T12:13:41;99693.06;;;-4.77;nan
43814;BME280;29669;55.706;37.656;2023-12-04T12:16:08;99699.00;;;-4.78;nan
43814;BME280;29669;55.706;37.656;2023-12-04T12:18:36;99706.84;;;-4.65;nan
43814;BME280;29669;55.706;37.656;2023-12-04T12:21:05;99707.56;;;-4.62;nan
43814;BME280;29669;55.706;37.656;2023-12-04T12:23:33;99704.31;;;-4.65;nan
43814;BME280;29669;55.706;37.656;2023-12-04T12:26:00;99713.41;;;-4.61;nan
43814;BME280;29669;55.706;37.656;2023-12-04T12:28:28;99709.44;;;-4.67;nan
43814;BME280;29669;55.706;37.656;2023-12-04T12:31:02;99721.94;;;-4.81;nan
43814;BME280;29669;55.706;37.656;2023-12-04T12:33:30;99715.88;;;-4.79;nan
43814;BME280;29669;55.706;37.656;2023-12-04T12:35:58;99718.38;;;-4.77;nan
43814;BME280;29669;55.706;37.656;2023-12-04T12:38:30;99724.72;;;-4.87;nan
43814;BME280;29669;55.706;37.656;2023-12-04T12:41:06;99722.03;;;-4.84;nan
43814;BME280;29669;55.706;37.656;2023-12-04T12:43:34;99722.66;;;-4.98;nan
43814;BME280;29669;55.706;37.656;2023-12-04T12:46:02;99719.44;;;-5.01;nan
43814;BME280;29669;55.706;37.656;2023-12-04T12:48:42;99729.56;;;-5.01;nan
43814;BME280;29669;55.706;37.656;2023-12-04T12:51:10;99724.81;;;-5.09;nan
43814;BME280;29669;55.706;37.656;2023-12-04T12:53:39;99713.16;;;-5.11;nan
43814;BME280;29669;55.706;37.656;2023-12-04T12:56:07;99737.22;;;-5.03;nan
43814;BME280;29669;55.706;37.656;2023-12-04T12:58:37;99742.03;;;-4.97;nan
43814;BME280;29669;55.706;37.656;2023-12-04T13:01:09;99734.25;;;-4.92;nan
43814;BME280;29669;55.706;37.656;2023-12-04T13:03:37;99736.56;;;-4.88;nan
43814;BME280;29669;55.706;37.656;2023-12-04T13:06:09;99740.03;;;-4.90;nan
43814;BME280;29669;55.706;37.656;2023-12-04T13:08:36;99740.09;;;-4.92;nan
43814;BME280;29669;55.706;37.656;2023-12-04T13:11:05;99741.94;;;-4.95;nan
43814;BME280;29669;55.706;37.656;2023-12-04T13:13:32;99747.84;;;-4.95;nan
43814;BME280;29669;55.706;37.656;2023-12-04T13:16:00;99743.66;;;-4.96;nan